Cherryville, Missouri
Current Conditions -  °F | °C
As of 7:53 PM on Thursday 18 Dec 2014 (Local Time) from KVIH Reporting Station
Haze Haze  
Wind Chill: 28°   Ceiling: 200
Heat Index: 33°   Visibility: 0.75mi
Dew Point: 32°   Wind: 6mph
Humidity: 96%   Direction: 70°ENE
Pressure: 30.21"   Gusts: NA
Location:  37.85°N, 91.28°W
Report Text: KVIH 190153Z AUTO 07005KT 3/4SM BR VV002 01/00 A3021 RMK AO2 SLP238 T00060000
Loading
Personal Weather Stations






























Interactive Weather Map New forecast layout! Learn more

10-Day Weather Forecast

Advertisements
Track Severe Weather on mobile